sensor_id;sensor_type;location;lat;lon;timestamp;pressure;altitude;pressure_sealevel;temperature;humidity
41264;BME280;26998;48.714;9.414;2023-11-19T00:01:27;98683.34;;;6.52;100.00
41264;BME280;26998;48.714;9.414;2023-11-19T00:03:54;98665.56;;;6.52;100.00
41264;BME280;26998;48.714;9.414;2023-11-19T00:06:20;98661.75;;;6.55;100.00
41264;BME280;26998;48.714;9.414;2023-11-19T00:08:47;98674.38;;;6.53;100.00
41264;BME280;26998;48.714;9.414;2023-11-19T00:11:13;98664.56;;;6.53;100.00
41264;BME280;26998;48.714;9.414;2023-11-19T00:13:40;98665.03;;;6.57;100.00
41264;BME280;26998;48.714;9.414;2023-11-19T00:16:07;98670.34;;;6.57;100.00
41264;BME280;26998;48.714;9.414;2023-11-19T00:18:34;98668.34;;;6.59;100.00
41264;BME280;26998;48.714;9.414;2023-11-19T00:21:00;98664.22;;;6.56;100.00
41264;BME280;26998;48.714;9.414;2023-11-19T00:23:27;98658.91;;;6.56;100.00
41264;BME280;26998;48.714;9.414;2023-11-19T00:25:54;98653.19;;;6.67;100.00
41264;BME280;26998;48.714;9.414;2023-11-19T00:28:21;98648.13;;;6.58;100.00
41264;BME280;26998;48.714;9.414;2023-11-19T00:30:47;98643.09;;;6.63;100.00
41264;BME280;26998;48.714;9.414;2023-11-19T00:33:15;98638.94;;;6.60;100.00
41264;BME280;26998;48.714;9.414;2023-11-19T00:35:41;98634.50;;;6.61;100.00
41264;BME280;26998;48.714;9.414;2023-11-19T00:38:08;98640.25;;;6.64;100.00
41264;BME280;26998;48.714;9.414;2023-11-19T00:40:35;98636.78;;;6.64;100.00
41264;BME280;26998;48.714;9.414;2023-11-19T00:43:01;98644.88;;;6.70;100.00
41264;BME280;26998;48.714;9.414;2023-11-19T00:45:28;98638.28;;;6.81;100.00
41264;BME280;26998;48.714;9.414;2023-11-19T00:47:55;98642.31;;;6.77;100.00
41264;BME280;26998;48.714;9.414;2023-11-19T00:50:22;98636.81;;;6.79;100.00
41264;BME280;26998;48.714;9.414;2023-11-19T00:52:48;98631.34;;;6.80;100.00
41264;BME280;26998;48.714;9.414;2023-11-19T00:55:17;98622.38;;;6.96;100.00
41264;BME280;26998;48.714;9.414;2023-11-19T00:57:44;98626.06;;;7.10;100.00
41264;BME280;26998;48.714;9.414;2023-11-19T01:00:11;98611.69;;;7.04;100.00
41264;BME280;26998;48.714;9.414;2023-11-19T01:02:38;98617.38;;;7.01;100.00
41264;BME280;26998;48.714;9.414;2023-11-19T01:05:07;98611.03;;;7.02;100.00
41264;BME280;26998;48.714;9.414;2023-11-19T01:07:34;98609.50;;;7.08;100.00
41264;BME280;26998;48.714;9.414;2023-11-19T01:10:01;98601.44;;;7.01;100.00
41264;BME280;26998;48.714;9.414;2023-11-19T01:12:27;98598.94;;;7.00;100.00
41264;BME280;26998;48.714;9.414;2023-11-19T01:14:54;98591.63;;;7.02;100.00
41264;BME280;26998;48.714;9.414;2023-11-19T01:17:20;98590.25;;;7.06;100.00
41264;BME280;26998;48.714;9.414;2023-11-19T01:19:47;98578.22;;;7.10;100.00
41264;BME280;26998;48.714;9.414;2023-11-19T01:22:14;98589.41;;;7.05;100.00
41264;BME280;26998;48.714;9.414;2023-11-19T01:24:40;98588.59;;;7.05;100.00
41264;BME280;26998;48.714;9.414;2023-11-19T01:27:07;98578.53;;;7.15;100.00
41264;BME280;26998;48.714;9.414;2023-11-19T01:29:33;98582.19;;;7.14;100.00
41264;BME280;26998;48.714;9.414;2023-11-19T01:32:00;98574.22;;;7.14;100.00
41264;BME280;26998;48.714;9.414;2023-11-19T01:34:26;98571.56;;;7.14;100.00
41264;BME280;26998;48.714;9.414;2023-11-19T01:36:53;98574.69;;;7.17;100.00
41264;BME280;26998;48.714;9.414;2023-11-19T01:39:20;98564.03;;;7.17;100.00
41264;BME280;26998;48.714;9.414;2023-11-19T01:41:46;98563.47;;;7.22;100.00
41264;BME280;26998;48.714;9.414;2023-11-19T01:44:15;98558.81;;;7.24;100.00
41264;BME280;26998;48.714;9.414;2023-11-19T01:46:44;98555.34;;;7.24;100.00
41264;BME280;26998;48.714;9.414;2023-11-19T01:49:11;98553.78;;;7.29;100.00
41264;BME280;26998;48.714;9.414;2023-11-19T01:51:39;98555.97;;;7.26;100.00
41264;BME280;26998;48.714;9.414;2023-11-19T01:54:07;98555.94;;;7.40;100.00
41264;BME280;26998;48.714;9.414;2023-11-19T01:56:35;98572.28;;;7.37;100.00
41264;BME280;26998;48.714;9.414;2023-11-19T01:59:03;98566.13;;;7.37;100.00
41264;BME280;26998;48.714;9.414;2023-11-19T02:01:30;98564.66;;;7.34;100.00
41264;BME280;26998;48.714;9.414;2023-11-19T02:03:57;98566.34;;;7.35;100.00
41264;BME280;26998;48.714;9.414;2023-11-19T02:06:25;98564.00;;;7.47;100.00
41264;BME280;26998;48.714;9.414;2023-11-19T02:08:52;98561.94;;;7.43;100.00
41264;BME280;26998;48.714;9.414;2023-11-19T02:11:19;98565.13;;;7.38;100.00
41264;BME280;26998;48.714;9.414;2023-11-19T02:13:46;98563.94;;;7.40;100.00
41264;BME280;26998;48.714;9.414;2023-11-19T02:16:12;98550.63;;;7.40;100.00
41264;BME280;26998;48.714;9.414;2023-11-19T02:18:39;98556.78;;;7.41;100.00
41264;BME280;26998;48.714;9.414;2023-11-19T02:21:05;98558.44;;;7.42;100.00
41264;BME280;26998;48.714;9.414;2023-11-19T02:23:35;98557.63;;;7.42;100.00
41264;BME280;26998;48.714;9.414;2023-11-19T02:26:18;98556.22;;;7.46;100.00
41264;BME280;26998;48.714;9.414;2023-11-19T02:28:45;98554.13;;;7.41;100.00
41264;BME280;26998;48.714;9.414;2023-11-19T02:31:11;98546.78;;;7.43;100.00
41264;BME280;26998;48.714;9.414;2023-11-19T02:33:38;98543.09;;;7.44;100.00
41264;BME280;26998;48.714;9.414;2023-11-19T02:36:06;98550.91;;;7.46;100.00
41264;BME280;26998;48.714;9.414;2023-11-19T02:38:34;98550.91;;;7.46;100.00
41264;BME280;26998;48.714;9.414;2023-11-19T02:41:04;98549.16;;;7.53;100.00
41264;BME280;26998;48.714;9.414;2023-11-19T02:43:32;98549.81;;;7.55;100.00
41264;BME280;26998;48.714;9.414;2023-11-19T02:46:02;98547.53;;;7.52;100.00
41264;BME280;26998;48.714;9.414;2023-11-19T02:48:41;98551.19;;;7.51;100.00
41264;BME280;26998;48.714;9.414;2023-11-19T02:51:07;98555.50;;;7.52;100.00
41264;BME280;26998;48.714;9.414;2023-11-19T02:53:34;98548.13;;;7.54;100.00
41264;BME280;26998;48.714;9.414;2023-11-19T02:56:01;98556.66;;;7.64;100.00
41264;BME280;26998;48.714;9.414;2023-11-19T02:58:27;98553.81;;;7.66;100.00
41264;BME280;26998;48.714;9.414;2023-11-19T03:00:55;98570.78;;;7.64;100.00
41264;BME280;26998;48.714;9.414;2023-11-19T03:03:23;98574.91;;;7.67;100.00
41264;BME280;26998;48.714;9.414;2023-11-19T03:05:50;98568.28;;;7.63;100.00
41264;BME280;26998;48.714;9.414;2023-11-19T03:08:17;98581.22;;;7.66;100.00
41264;BME280;26998;48.714;9.414;2023-11-19T03:10:46;98571.59;;;7.65;100.00
41264;BME280;26998;48.714;9.414;2023-11-19T03:13:14;98567.94;;;7.66;100.00
41264;BME280;26998;48.714;9.414;2023-11-19T03:15:43;98581.22;;;7.66;100.00
41264;BME280;26998;48.714;9.414;2023-11-19T03:18:10;98582.06;;;7.67;100.00
41264;BME280;26998;48.714;9.414;2023-11-19T03:20:37;98588.22;;;7.67;100.00
41264;BME280;26998;48.714;9.414;2023-11-19T03:23:03;98596.56;;;7.64;100.00
41264;BME280;26998;48.714;9.414;2023-11-19T03:25:30;98588.84;;;7.69;100.00
41264;BME280;26998;48.714;9.414;2023-11-19T03:27:59;98598.84;;;7.67;100.00
41264;BME280;26998;48.714;9.414;2023-11-19T03:30:26;98603.16;;;7.68;100.00
41264;BME280;26998;48.714;9.414;2023-11-19T03:33:00;98605.28;;;7.73;100.00
41264;BME280;26998;48.714;9.414;2023-11-19T03:35:26;98610.03;;;7.77;100.00
41264;BME280;26998;48.714;9.414;2023-11-19T03:37:54;98618.00;;;7.77;100.00
41264;BME280;26998;48.714;9.414;2023-11-19T03:40:20;98623.41;;;7.84;100.00
41264;BME280;26998;48.714;9.414;2023-11-19T03:42:47;98626.50;;;7.87;100.00
41264;BME280;26998;48.714;9.414;2023-11-19T03:45:13;98618.66;;;7.79;100.00
41264;BME280;26998;48.714;9.414;2023-11-19T03:47:40;98643.22;;;7.81;100.00
41264;BME280;26998;48.714;9.414;2023-11-19T03:50:08;98638.53;;;7.83;100.00
41264;BME280;26998;48.714;9.414;2023-11-19T03:52:36;98630.13;;;7.80;100.00
41264;BME280;26998;48.714;9.414;2023-11-19T03:55:06;98621.47;;;7.78;100.00
41264;BME280;26998;48.714;9.414;2023-11-19T03:57:32;98626.50;;;7.87;100.00
41264;BME280;26998;48.714;9.414;2023-11-19T03:59:58;98634.03;;;7.84;100.00
41264;BME280;26998;48.714;9.414;2023-11-19T04:02:25;98630.00;;;7.88;100.00
41264;BME280;26998;48.714;9.414;2023-11-19T04:04:51;98639.81;;;7.87;100.00
41264;BME280;26998;48.714;9.414;2023-11-19T04:07:18;98651.56;;;7.93;100.00
41264;BME280;26998;48.714;9.414;2023-11-19T04:09:45;98651.94;;;7.90;100.00
41264;BME280;26998;48.714;9.414;2023-11-19T04:12:18;98643.69;;;7.85;100.00
41264;BME280;26998;48.714;9.414;2023-11-19T04:14:52;98641.72;;;7.94;100.00
41264;BME280;26998;48.714;9.414;2023-11-19T04:17:22;98650.06;;;8.05;100.00
41264;BME280;26998;48.714;9.414;2023-11-19T04:19:48;98646.88;;;8.10;100.00
41264;BME280;26998;48.714;9.414;2023-11-19T04:22:15;98647.81;;;8.24;100.00
41264;BME280;26998;48.714;9.414;2023-11-19T04:24:41;98658.03;;;8.20;100.00
41264;BME280;26998;48.714;9.414;2023-11-19T04:27:08;98658.03;;;8.20;100.00
41264;BME280;26998;48.714;9.414;2023-11-19T04:29:35;98664.75;;;8.16;100.00
41264;BME280;26998;48.714;9.414;2023-11-19T04:32:01;98669.78;;;8.11;100.00
41264;BME280;26998;48.714;9.414;2023-11-19T04:34:28;98661.53;;;8.06;100.00
41264;BME280;26998;48.714;9.414;2023-11-19T04:36:54;98656.66;;;8.09;100.00
41264;BME280;26998;48.714;9.414;2023-11-19T04:39:21;98654.09;;;8.16;100.00
41264;BME280;26998;48.714;9.414;2023-11-19T04:41:48;98657.59;;;8.17;100.00
41264;BME280;26998;48.714;9.414;2023-11-19T04:44:16;98660.31;;;8.23;100.00
41264;BME280;26998;48.714;9.414;2023-11-19T04:46:42;98672.59;;;8.39;100.00
41264;BME280;26998;48.714;9.414;2023-11-19T04:49:10;98670.06;;;8.38;100.00
41264;BME280;26998;48.714;9.414;2023-11-19T04:51:44;98672.66;;;8.46;100.00
41264;BME280;26998;48.714;9.414;2023-11-19T04:54:11;98668.44;;;8.37;100.00
41264;BME280;26998;48.714;9.414;2023-11-19T04:56:38;98669.75;;;8.41;100.00
41264;BME280;26998;48.714;9.414;2023-11-19T04:59:05;98665.13;;;8.49;100.00
41264;BME280;26998;48.714;9.414;2023-11-19T05:01:33;98663.28;;;8.50;100.00
41264;BME280;26998;48.714;9.414;2023-11-19T05:04:00;98660.44;;;8.51;100.00
41264;BME280;26998;48.714;9.414;2023-11-19T05:06:27;98667.63;;;8.51;100.00
41264;BME280;26998;48.714;9.414;2023-11-19T05:08:55;98672.13;;;8.50;100.00
41264;BME280;26998;48.714;9.414;2023-11-19T05:11:22;98677.19;;;8.45;100.00
41264;BME280;26998;48.714;9.414;2023-11-19T05:13:49;98674.97;;;8.49;100.00
41264;BME280;26998;48.714;9.414;2023-11-19T05:16:15;98670.28;;;8.51;100.00
41264;BME280;26998;48.714;9.414;2023-11-19T05:18:42;98672.56;;;8.54;100.00
41264;BME280;26998;48.714;9.414;2023-11-19T05:21:09;98671.03;;;8.45;100.00
41264;BME280;26998;48.714;9.414;2023-11-19T05:23:36;98672.13;;;8.50;100.00
41264;BME280;26998;48.714;9.414;2023-11-19T05:26:02;98665.84;;;8.58;100.00
41264;BME280;26998;48.714;9.414;2023-11-19T05:28:33;98665.19;;;8.56;100.00
41264;BME280;26998;48.714;9.414;2023-11-19T05:30:59;98665.44;;;8.61;100.00
41264;BME280;26998;48.714;9.414;2023-11-19T05:33:26;98675.34;;;8.67;100.00
41264;BME280;26998;48.714;9.414;2023-11-19T05:35:52;98673.56;;;8.74;100.00
41264;BME280;26998;48.714;9.414;2023-11-19T05:38:19;98677.44;;;8.72;100.00
41264;BME280;26998;48.714;9.414;2023-11-19T05:40:45;98682.75;;;8.72;100.00
41264;BME280;26998;48.714;9.414;2023-11-19T05:43:12;98679.91;;;8.73;100.00
41264;BME280;26998;48.714;9.414;2023-11-19T05:45:38;98679.28;;;8.71;100.00
41264;BME280;26998;48.714;9.414;2023-11-19T05:48:04;98679.47;;;8.70;100.00
41264;BME280;26998;48.714;9.414;2023-11-19T05:50:31;98683.06;;;8.62;100.00
41264;BME280;26998;48.714;9.414;2023-11-19T05:52:58;98676.75;;;8.63;100.00
41264;BME280;26998;48.714;9.414;2023-11-19T05:55:24;98684.22;;;8.74;100.00
41264;BME280;26998;48.714;9.414;2023-11-19T05:57:51;98681.38;;;8.76;100.00
41264;BME280;26998;48.714;9.414;2023-11-19T06:00:17;98684.50;;;8.79;100.00
41264;BME280;26998;48.714;9.414;2023-11-19T06:02:44;98686.38;;;8.86;100.00
41264;BME280;26998;48.714;9.414;2023-11-19T06:05:11;98684.34;;;8.88;100.00
41264;BME280;26998;48.714;9.414;2023-11-19T06:07:39;98685.81;;;8.90;100.00
41264;BME280;26998;48.714;9.414;2023-11-19T06:10:06;98683.78;;;8.92;100.00
41264;BME280;26998;48.714;9.414;2023-11-19T06:12:34;98691.06;;;8.84;100.00
41264;BME280;26998;48.714;9.414;2023-11-19T06:15:00;98689.06;;;8.86;100.00
41264;BME280;26998;48.714;9.414;2023-11-19T06:17:27;98683.34;;;8.89;100.00
41264;BME280;26998;48.714;9.414;2023-11-19T06:19:54;98681.22;;;9.06;100.00
41264;BME280;26998;48.714;9.414;2023-11-19T06:22:20;98674.44;;;9.03;100.00
41264;BME280;26998;48.714;9.414;2023-11-19T06:24:47;98677.22;;;9.16;100.00
41264;BME280;26998;48.714;9.414;2023-11-19T06:27:14;98673.94;;;9.49;100.00
41264;BME280;26998;48.714;9.414;2023-11-19T06:29:41;98663.25;;;9.42;100.00
41264;BME280;26998;48.714;9.414;2023-11-19T06:32:08;98661.09;;;9.31;100.00
41264;BME280;26998;48.714;9.414;2023-11-19T06:34:38;98670.94;;;9.31;100.00
41264;BME280;26998;48.714;9.414;2023-11-19T06:37:04;98672.28;;;9.41;100.00
41264;BME280;26998;48.714;9.414;2023-11-19T06:39:31;98667.19;;;9.53;100.00
41264;BME280;26998;48.714;9.414;2023-11-19T06:41:57;98664.50;;;9.46;100.00
41264;BME280;26998;48.714;9.414;2023-11-19T06:44:24;98665.59;;;9.59;100.00
41264;BME280;26998;48.714;9.414;2023-11-19T06:46:51;98682.28;;;9.67;100.00
41264;BME280;26998;48.714;9.414;2023-11-19T06:49:18;98668.00;;;9.82;100.00
41264;BME280;26998;48.714;9.414;2023-11-19T06:51:47;98671.28;;;9.84;100.00
41264;BME280;26998;48.714;9.414;2023-11-19T06:54:14;98671.63;;;9.74;100.00
41264;BME280;26998;48.714;9.414;2023-11-19T06:56:40;98676.81;;;9.82;100.00
41264;BME280;26998;48.714;9.414;2023-11-19T06:59:07;98682.31;;;9.74;100.00
41264;BME280;26998;48.714;9.414;2023-11-19T07:01:35;98676.97;;;9.74;100.00
41264;BME280;26998;48.714;9.414;2023-11-19T07:04:02;98680.31;;;9.83;100.00
41264;BME280;26998;48.714;9.414;2023-11-19T07:06:29;98681.34;;;9.82;100.00
41264;BME280;26998;48.714;9.414;2023-11-19T07:08:59;98689.97;;;9.84;100.00
41264;BME280;26998;48.714;9.414;2023-11-19T07:11:27;98690.16;;;9.82;100.00
41264;BME280;26998;48.714;9.414;2023-11-19T07:13:54;98685.25;;;9.86;100.00
41264;BME280;26998;48.714;9.414;2023-11-19T07:16:21;98683.66;;;9.91;100.00
41264;BME280;26998;48.714;9.414;2023-11-19T07:18:48;98680.56;;;9.88;100.00
41264;BME280;26998;48.714;9.414;2023-11-19T07:21:15;98684.47;;;9.92;100.00
41264;BME280;26998;48.714;9.414;2023-11-19T07:23:42;98680.41;;;10.03;100.00
41264;BME280;26998;48.714;9.414;2023-11-19T07:26:11;98672.19;;;9.98;100.00
41264;BME280;26998;48.714;9.414;2023-11-19T07:28:38;98649.59;;;10.00;100.00
41264;BME280;26998;48.714;9.414;2023-11-19T07:31:05;98640.53;;;9.94;100.00
41264;BME280;26998;48.714;9.414;2023-11-19T07:33:32;98631.09;;;9.99;100.00
41264;BME280;26998;48.714;9.414;2023-11-19T07:35:59;98633.38;;;10.02;100.00
41264;BME280;26998;48.714;9.414;2023-11-19T07:38:26;98635.66;;;10.05;100.00
41264;BME280;26998;48.714;9.414;2023-11-19T07:40:53;98623.31;;;10.04;100.00
41264;BME280;26998;48.714;9.414;2023-11-19T07:43:23;98623.75;;;10.07;100.00
41264;BME280;26998;48.714;9.414;2023-11-19T07:45:50;98614.31;;;10.18;100.00
41264;BME280;26998;48.714;9.414;2023-11-19T07:48:17;98623.00;;;10.27;100.00
41264;BME280;26998;48.714;9.414;2023-11-19T07:50:43;98609.84;;;10.25;100.00
41264;BME280;26998;48.714;9.414;2023-11-19T07:53:10;98617.00;;;10.25;100.00
41264;BME280;26998;48.714;9.414;2023-11-19T07:55:37;98615.00;;;10.27;100.00
41264;BME280;26998;48.714;9.414;2023-11-19T07:58:07;98611.09;;;10.29;100.00
41264;BME280;26998;48.714;9.414;2023-11-19T08:00:34;98620.97;;;10.35;100.00
41264;BME280;26998;48.714;9.414;2023-11-19T08:03:01;98615.41;;;10.37;100.00
41264;BME280;26998;48.714;9.414;2023-11-19T08:05:28;98616.88;;;10.39;100.00
41264;BME280;26998;48.714;9.414;2023-11-19T08:07:55;98608.66;;;10.41;100.00
41264;BME280;26998;48.714;9.414;2023-11-19T08:10:21;98605.38;;;10.39;100.00
41264;BME280;26998;48.714;9.414;2023-11-19T08:12:48;98614.00;;;10.48;100.00
41264;BME280;26998;48.714;9.414;2023-11-19T08:15:15;98599.03;;;10.60;100.00
41264;BME280;26998;48.714;9.414;2023-11-19T08:17:56;98599.44;;;10.57;100.00
41264;BME280;26998;48.714;9.414;2023-11-19T08:20:23;98600.25;;;10.71;100.00
41264;BME280;26998;48.714;9.414;2023-11-19T08:22:50;98599.25;;;10.72;100.00
41264;BME280;26998;48.714;9.414;2023-11-19T08:25:17;98599.25;;;10.85;100.00
41264;BME280;26998;48.714;9.414;2023-11-19T08:27:43;98605.00;;;10.75;100.00
41264;BME280;26998;48.714;9.414;2023-11-19T08:30:10;98593.06;;;10.84;100.00
41264;BME280;26998;48.714;9.414;2023-11-19T08:32:38;98596.16;;;10.88;100.00
41264;BME280;26998;48.714;9.414;2023-11-19T08:35:05;98602.50;;;10.80;100.00
41264;BME280;26998;48.714;9.414;2023-11-19T08:37:32;98601.69;;;10.93;100.00
41264;BME280;26998;48.714;9.414;2023-11-19T08:39:58;98619.38;;;10.81;100.00
41264;BME280;26998;48.714;9.414;2023-11-19T08:42:25;98615.06;;;10.86;100.00
41264;BME280;26998;48.714;9.414;2023-11-19T08:44:51;98615.91;;;10.94;100.00
41264;BME280;26998;48.714;9.414;2023-11-19T08:47:18;98621.84;;;11.16;100.00
41264;BME280;26998;48.714;9.414;2023-11-19T08:49:45;98637.66;;;11.30;100.00
41264;BME280;26998;48.714;9.414;2023-11-19T08:52:12;98674.91;;;11.45;100.00
41264;BME280;26998;48.714;9.414;2023-11-19T08:54:42;98722.88;;;11.47;100.00
41264;BME280;26998;48.714;9.414;2023-11-19T08:57:09;98734.41;;;11.41;100.00
41264;BME280;26998;48.714;9.414;2023-11-19T08:59:36;98753.13;;;11.47;100.00
41264;BME280;26998;48.714;9.414;2023-11-19T09:02:03;98791.19;;;11.49;100.00
41264;BME280;26998;48.714;9.414;2023-11-19T09:04:29;98837.53;;;11.43;100.00
41264;BME280;26998;48.714;9.414;2023-11-19T09:06:57;98872.09;;;11.38;100.00
41264;BME280;26998;48.714;9.414;2023-11-19T09:09:24;98878.50;;;11.44;100.00
41264;BME280;26998;48.714;9.414;2023-11-19T09:11:51;98900.75;;;11.51;100.00
41264;BME280;26998;48.714;9.414;2023-11-19T09:14:18;98924.91;;;11.84;100.00
41264;BME280;26998;48.714;9.414;2023-11-19T09:16:44;98981.59;;;11.94;100.00
41264;BME280;26998;48.714;9.414;2023-11-19T09:19:11;99069.66;;;12.31;100.00
41264;BME280;26998;48.714;9.414;2023-11-19T09:21:37;99106.78;;;12.40;100.00
41264;BME280;26998;48.714;9.414;2023-11-19T09:24:04;99195.44;;;12.39;100.00
41264;BME280;26998;48.714;9.414;2023-11-19T09:26:32;99225.53;;;12.34;100.00
41264;BME280;26998;48.714;9.414;2023-11-19T09:28:58;99260.38;;;12.34;100.00
41264;BME280;26998;48.714;9.414;2023-11-19T09:31:25;99296.41;;;12.25;100.00
41264;BME280;26998;48.714;9.414;2023-11-19T09:33:51;99305.84;;;12.21;100.00
41264;BME280;26998;48.714;9.414;2023-11-19T09:36:18;99319.41;;;12.13;100.00
41264;BME280;26998;48.714;9.414;2023-11-19T09:38:45;99316.91;;;12.11;100.00
41264;BME280;26998;48.714;9.414;2023-11-19T09:41:12;99324.94;;;12.11;100.00
41264;BME280;26998;48.714;9.414;2023-11-19T09:43:42;99321.44;;;12.11;100.00
41264;BME280;26998;48.714;9.414;2023-11-19T09:46:09;99316.66;;;11.99;100.00
41264;BME280;26998;48.714;9.414;2023-11-19T09:48:37;99310.34;;;12.14;100.00
41264;BME280;26998;48.714;9.414;2023-11-19T09:51:05;99309.59;;;12.27;100.00
41264;BME280;26998;48.714;9.414;2023-11-19T09:53:33;99309.63;;;12.33;100.00
41264;BME280;26998;48.714;9.414;2023-11-19T09:56:02;99330.75;;;12.50;100.00
41264;BME280;26998;48.714;9.414;2023-11-19T09:58:30;99354.66;;;12.51;100.00
41264;BME280;26998;48.714;9.414;2023-11-19T10:00:57;99365.84;;;12.61;100.00
41264;BME280;26998;48.714;9.414;2023-11-19T10:03:47;99382.88;;;12.82;100.00
41264;BME280;26998;48.714;9.414;2023-11-19T10:06:15;99392.81;;;12.88;100.00
41264;BME280;26998;48.714;9.414;2023-11-19T10:08:44;99413.44;;;12.87;100.00
41264;BME280;26998;48.714;9.414;2023-11-19T10:11:11;99412.78;;;13.27;100.00
41264;BME280;26998;48.714;9.414;2023-11-19T10:13:37;99433.47;;;13.33;100.00
41264;BME280;26998;48.714;9.414;2023-11-19T10:16:13;99740.59;;;13.38;100.00
41264;BME280;26998;48.714;9.414;2023-11-19T10:18:47;99705.16;;;13.50;100.00
41264;BME280;26998;48.714;9.414;2023-11-19T10:21:14;99659.66;;;13.42;100.00
41264;BME280;26998;48.714;9.414;2023-11-19T10:23:48;99661.72;;;13.39;100.00
41264;BME280;26998;48.714;9.414;2023-11-19T10:26:14;99669.81;;;13.46;100.00
41264;BME280;26998;48.714;9.414;2023-11-19T10:28:41;99708.94;;;13.97;100.00
41264;BME280;26998;48.714;9.414;2023-11-19T10:31:08;99606.72;;;14.45;100.00
41264;BME280;26998;48.714;9.414;2023-11-19T10:33:35;99543.63;;;14.34;100.00
41264;BME280;26998;48.714;9.414;2023-11-19T10:36:01;99503.31;;;14.27;100.00
41264;BME280;26998;48.714;9.414;2023-11-19T10:38:28;99487.94;;;13.75;100.00
41264;BME280;26998;48.714;9.414;2023-11-19T10:40:55;99560.41;;;13.61;100.00
41264;BME280;26998;48.714;9.414;2023-11-19T10:43:22;99584.75;;;13.53;100.00
41264;BME280;26998;48.714;9.414;2023-11-19T10:45:50;99619.16;;;13.36;100.00
41264;BME280;26998;48.714;9.414;2023-11-19T10:48:19;99629.72;;;13.45;100.00
41264;BME280;26998;48.714;9.414;2023-11-19T10:50:49;99625.66;;;13.55;100.00
41264;BME280;26998;48.714;9.414;2023-11-19T10:53:18;99624.31;;;13.79;100.00
41264;BME280;26998;48.714;9.414;2023-11-19T10:55:47;99542.53;;;13.95;100.00
41264;BME280;26998;48.714;9.414;2023-11-19T10:58:15;99461.53;;;14.65;100.00
41264;BME280;26998;48.714;9.414;2023-11-19T11:00:56;99414.59;;;15.12;100.00
41264;BME280;26998;48.714;9.414;2023-11-19T11:03:29;99336.69;;;15.49;100.00
41264;BME280;26998;48.714;9.414;2023-11-19T11:05:59;99214.22;;;15.77;100.00
41264;BME280;26998;48.714;9.414;2023-11-19T11:08:30;99159.47;;;15.76;100.00
41264;BME280;26998;48.714;9.414;2023-11-19T11:10:57;99222.63;;;15.12;100.00
41264;BME280;26998;48.714;9.414;2023-11-19T11:13:27;99216.09;;;14.94;100.00
41264;BME280;26998;48.714;9.414;2023-11-19T11:15:55;99326.94;;;14.78;100.00
41264;BME280;26998;48.714;9.414;2023-11-19T11:18:22;99365.28;;;14.60;100.00
41264;BME280;26998;48.714;9.414;2023-11-19T11:20:49;99371.47;;;14.74;100.00
41264;BME280;26998;48.714;9.414;2023-11-19T11:23:32;99376.53;;;14.30;100.00
41264;BME280;26998;48.714;9.414;2023-11-19T11:28:57;99396.16;;;14.11;100.00
41264;BME280;26998;48.714;9.414;2023-11-19T11:31:35;99418.09;;;14.01;100.00
41264;BME280;26998;48.714;9.414;2023-11-19T11:34:28;99409.59;;;13.98;100.00
41264;BME280;26998;48.714;9.414;2023-11-19T11:39:36;99279.13;;;14.22;100.00
41264;BME280;26998;48.714;9.414;2023-11-19T11:44:58;99259.09;;;14.11;100.00
41264;BME280;26998;48.714;9.414;2023-11-19T11:50:11;99226.63;;;14.13;100.00
41264;BME280;26998;48.714;9.414;2023-11-19T11:55:37;99281.22;;;14.06;100.00
41264;BME280;26998;48.714;9.414;2023-11-19T11:58:20;99160.63;;;14.23;100.00
41264;BME280;26998;48.714;9.414;2023-11-19T12:00:48;99159.41;;;14.19;100.00
41264;BME280;26998;48.714;9.414;2023-11-19T12:03:20;99122.06;;;14.43;100.00
41264;BME280;26998;48.714;9.414;2023-11-19T12:05:47;99090.19;;;14.46;100.00
41264;BME280;26998;48.714;9.414;2023-11-19T12:08:18;99167.69;;;14.63;100.00
41264;BME280;26998;48.714;9.414;2023-11-19T12:10:52;99128.06;;;14.76;100.00
41264;BME280;26998;48.714;9.414;2023-11-19T12:13:21;99115.28;;;14.97;100.00
41264;BME280;26998;48.714;9.414;2023-11-19T12:18:27;99067.72;;;15.53;100.00
41264;BME280;26998;48.714;9.414;2023-11-19T12:20:55;99011.59;;;15.31;100.00
41264;BME280;26998;48.714;9.414;2023-11-19T12:23:23;99020.50;;;15.32;100.00
41264;BME280;26998;48.714;9.414;2023-11-19T12:25:53;98941.38;;;15.33;100.00
41264;BME280;26998;48.714;9.414;2023-11-19T12:28:20;98912.59;;;15.45;100.00
41264;BME280;26998;48.714;9.414;2023-11-19T12:30:46;98956.94;;;15.31;100.00
41264;BME280;26998;48.714;9.414;2023-11-19T12:33:17;98904.16;;;15.41;100.00
41264;BME280;26998;48.714;9.414;2023-11-19T12:35:45;98921.94;;;14.94;100.00
41264;BME280;26998;48.714;9.414;2023-11-19T12:38:22;98856.72;;;15.10;100.00
41264;BME280;26998;48.714;9.414;2023-11-19T12:41:11;98868.56;;;14.91;100.00
41264;BME280;26998;48.714;9.414;2023-11-19T12:43:38;98902.06;;;14.76;100.00
41264;BME280;26998;48.714;9.414;2023-11-19T12:46:21;98873.38;;;14.70;100.00
41264;BME280;26998;48.714;9.414;2023-11-19T12:48:51;98885.31;;;14.56;100.00
41264;BME280;26998;48.714;9.414;2023-11-19T12:51:18;98854.56;;;14.70;100.00
41264;BME280;26998;48.714;9.414;2023-11-19T12:53:50;98845.59;;;14.58;100.00
41264;BME280;26998;48.714;9.414;2023-11-19T12:56:17;98851.25;;;14.68;100.00
41264;BME280;26998;48.714;9.414;2023-11-19T12:58:45;98888.09;;;14.68;100.00
41264;BME280;26998;48.714;9.414;2023-11-19T13:01:16;98860.44;;;14.79;100.00
41264;BME280;26998;48.714;9.414;2023-11-19T13:03:44;98845.19;;;14.91;100.00
41264;BME280;26998;48.714;9.414;2023-11-19T13:06:12;98796.97;;;15.62;100.00
41264;BME280;26998;48.714;9.414;2023-11-19T13:08:44;98807.13;;;15.60;100.00
41264;BME280;26998;48.714;9.414;2023-11-19T13:11:12;98741.38;;;15.67;100.00
41264;BME280;26998;48.714;9.414;2023-11-19T13:13:59;98736.91;;;15.85;100.00
41264;BME280;26998;48.714;9.414;2023-11-19T13:16:27;98704.34;;;15.75;100.00